ADDS METAR Data INFO
IDs: Format: Raw Decoded Include TAF

Data at: 1148 UTC 25 Jun 2018

KBWD 251135Z AUTO 01006KT 10SM CLR 24/19 A3000 RMK AO2
KBWD 251115Z AUTO 18007KT 10SM SCT027 24/19 A2994 RMK AO2
KBWD 251055Z AUTO 17007KT 10SM BKN025 24/19 A2993 RMK AO2
KBWD 251035Z AUTO 17011G16KT 10SM OVC025 24/19 A2992 RMK AO2
KBWD 251015Z AUTO 18011G17KT 10SM OVC025 25/19 A2992 RMK AO2
KBWD 250955Z AUTO 18014G18KT 10SM OVC025 25/20 A2992 RMK AO2
KBWD 250935Z AUTO 18010G16KT 10SM OVC025 25/20 A2991 RMK AO2
KBWD 250915Z AUTO 18011G21KT 10SM OVC025 25/20 A2991 RMK AO2
KBWD 250855Z AUTO 17011G17KT 10SM BKN025 25/20 A2990 RMK AO2
KBWD 250835Z AUTO 17011G20KT 10SM SCT023 SCT028 25/20 A2989 RMK AO2
KBWD 250815Z AUTO 17014G18KT 10SM SCT025 25/20 A2989 RMK AO2
KBWD 250755Z AUTO 17010G17KT 10SM SCT025 25/20 A2988 RMK AO2
KBWD 250735Z AUTO 17012G16KT 10SM SCT027 25/21 A2987 RMK AO2
KBWD 250715Z AUTO 17012G17KT 10SM BKN027 26/21 A2987 RMK AO2
KBWD 250655Z AUTO 17010G17KT 10SM BKN022 BKN027 26/20 A2986 RMK AO2
KBWD 250635Z AUTO 17014G22KT 10SM BKN022 OVC028 27/20 A2986 RMK AO2
KBWD 250615Z AUTO 16015G22KT 10SM BKN026 OVC031 27/20 A2986 RMK AO2
KBWD 250555Z AUTO 16011G23KT 10SM BKN026 OVC032 28/20 A2986 RMK AO2
KBWD 250535Z AUTO 15014G25KT 10SM BKN030 OVC034 28/20 A2987 RMK AO2
KBWD 250515Z AUTO 15014G21KT 10SM FEW029 BKN035 28/20 A2987 RMK AO2
KBWD 250455Z AUTO 15013G22KT 10SM SCT033 SCT039 29/20 A2987 RMK AO2
KBWD 250435Z AUTO 14016G21KT 10SM SCT038 SCT044 29/19 A2987 RMK AO2
KBWD 250415Z AUTO 14013G21KT 10SM FEW044 30/19 A2987 RMK AO2
KBWD 250355Z AUTO 14016G24KT 10SM FEW042 30/19 A2986 RMK AO2
KBWD 250335Z AUTO 14015G23KT 10SM CLR 30/18 A2986 RMK AO2
KBWD 250315Z AUTO 14016G23KT 10SM FEW048 31/18 A2985 RMK AO2
KBWD 250255Z AUTO 14012G19KT 10SM FEW048 31/18 A2984 RMK AO2
KBWD 250235Z AUTO 14014G20KT 10SM FEW048 32/18 A2984 RMK AO2
KBWD 250215Z AUTO 13010G19KT 10SM CLR 32/17 A2983 RMK AO2
KBWD 250155Z AUTO 14013G19KT 10SM CLR 33/17 A2981 RMK AO2
KBWD 250135Z AUTO 14015G20KT 10SM CLR 33/17 A2980 RMK AO2
KBWD 250115Z AUTO 15012G25KT 10SM CLR 34/17 A2979 RMK AO2
KBWD 250055Z AUTO 14016G24KT 10SM -RA CLR 35/16 A2978 RMK AO2 P0001
KBWD 250035Z AUTO 17018G26KT 10SM -RA CLR 35/15 A2977 RMK AO2 P0001
KBWD 250015Z AUTO 15012G21KT 10SM -RA CLR 36/16 A2976 RMK AO2
KBWD 242355Z AUTO 15014G25KT 10SM -RA CLR 37/15 A2976 RMK AO2 P0005
KBWD 242335Z AUTO 16019G25KT 120V180 10SM -RA CLR 37/15 A2976 RMK AO2 P0003
KBWD 242315Z AUTO 16016G24KT 10SM -RA CLR 38/15 A2976 RMK AO2 P0001
KBWD 242255Z AUTO 15021G30KT 10SM -RA CLR 38/15 A2976 RMK AO2 P0007
KBWD 242235Z AUTO 15014G24KT 10SM -RA CLR 38/15 A2976 RMK AO2 P0004
KBWD 242215Z AUTO 15018G26KT 10SM -RA CLR 39/15 A2976 RMK AO2 P0001
KBWD 242155Z AUTO 16017G25KT 10SM -RA CLR 38/15 A2977 RMK AO2 P0006
KBWD 242135Z AUTO 16017G25KT 10SM -RA CLR 39/15 A2977 RMK AO2 P0003
KBWD 242115Z AUTO 17015G26KT 10SM -RA CLR 39/15 A2977 RMK AO2 P0001
KBWD 242055Z AUTO 16018G27KT 10SM -RA CLR 39/15 A2977 RMK AO2 P0003
KBWD 242035Z AUTO 15018G29KT 10SM -RA CLR 38/15 A2977 RMK AO2 P0001
KBWD 242015Z AUTO 15016G28KT 10SM -RA CLR 38/16 A2978 RMK AO2
KBWD 241955Z AUTO 15018G26KT 10SM -RA CLR 38/17 A2979 RMK AO2
KBWD 241935Z AUTO 17017G23KT 140V200 10SM -RA CLR 37/17 A2980 RMK AO2
KBWD 241915Z AUTO 17014G22KT 10SM CLR 37/18 A2981 RMK AO2
KBWD 241855Z AUTO 15015G24KT 10SM CLR 37/19 A2982 RMK AO2
KBWD 241835Z AUTO 18010G24KT 140V200 10SM CLR 35/19 A2982 RMK AO2
KBWD 241815Z AUTO 15011G23KT 10SM CLR 35/19 A2982 RMK AO2
KBWD 241755Z AUTO 16017G23KT 10SM CLR 34/20 A2983 RMK AO2
KBWD 241735Z AUTO 17010G21KT 10SM CLR 34/20 A2984 RMK AO2
KBWD 241715Z AUTO 18014G20KT 10SM CLR 33/20 A2984 RMK AO2
KBWD 241655Z AUTO 17013G22KT 10SM CLR 33/20 A2984 RMK AO2
KBWD 241635Z AUTO 18013G20KT 10SM CLR 32/20 A2985 RMK AO2
KBWD 241615Z AUTO 18014G22KT 10SM CLR 31/20 A2984 RMK AO2
KBWD 241555Z AUTO 17016G23KT 10SM CLR 31/20 A2984 RMK AO2
KBWD 241535Z AUTO 18014G20KT 10SM SCT033 30/20 A2985 RMK AO2
KBWD 241515Z AUTO 18015G22KT 10SM SCT031 30/20 A2984 RMK AO2
KBWD 241455Z AUTO 18013G22KT 10SM SCT029 29/20 A2984 RMK AO2
KBWD 241435Z AUTO 19017G25KT 10SM FEW027 28/20 A2984 RMK AO2
KBWD 241415Z AUTO 18013G21KT 10SM FEW027 28/20 A2983 RMK AO2
KBWD 241355Z AUTO 20016G25KT 10SM FEW027 27/20 A2983 RMK AO2
KBWD 241335Z AUTO 18013G19KT 10SM CLR 27/20 A2983 RMK AO2
KBWD 241315Z AUTO 19011G18KT 10SM CLR 25/20 A2983 RMK AO2
KBWD 241255Z AUTO 18011G19KT 10SM CLR 25/20 A2983 RMK AO2
KBWD 241235Z AUTO 18010G15KT 10SM CLR 26/20 A2982 RMK AO2
KBWD 241215Z AUTO 17011G16KT 140V200 10SM CLR 25/20 A2981 RMK AO2
KBWD 241155Z AUTO 18010G15KT 9SM CLR 25/21 A2980 RMK AO2
KBWD 241135Z AUTO 18010KT 9SM BKN023 25/21 A2979 RMK AO2
KBWD 241115Z AUTO 18009G17KT 10SM OVC023 25/22 A2979 RMK AO2
KBWD 241055Z AUTO 17008KT 9SM OVC025 25/22 A2978 RMK AO2
KBWD 241035Z AUTO 16009G15KT 10SM BKN025 26/22 A2978 RMK AO2
KBWD 241015Z AUTO 17010G17KT 9SM FEW025 FEW035 26/22 A2976 RMK AO2
KBWD 240955Z AUTO 18010G15KT 9SM CLR 26/23 A2977 RMK AO2
KBWD 240935Z AUTO 15007KT 9SM CLR 25/23 A2977 RMK AO2
KBWD 240915Z AUTO 16009G15KT 10SM CLR 25/22 A2976 RMK AO2
KBWD 240855Z AUTO 15009G16KT 10SM CLR 25/22 A2976 RMK AO2
KBWD 240835Z AUTO 15012G23KT 10SM CLR 25/22 A2976 RMK AO2
KBWD 240815Z AUTO 16016G20KT 10SM FEW026 25/21 A2975 RMK AO2
KBWD 240755Z AUTO 17013G22KT 10SM FEW024 25/20 A2975 RMK AO2
KBWD 240735Z AUTO 15015G27KT 10SM FEW027 SCT060 BKN080 25/19 A2975 RMK AO2
KBWD 240715Z AUTO 12015G31KT 10SM FEW029 SCT048 BKN060 24/18 A2974 RMK AO2
KBWD 240655Z AUTO 14014G19KT 10SM FEW045 SCT060 BKN070 26/15 A2983 RMK AO2
KBWD 240635Z AUTO 15008KT 10SM SCT070 BKN095 27/14 A2985 RMK AO2
KBWD 240615Z AUTO 22006KT 10SM CLR 28/14 A2985 RMK AO2
KBWD 240555Z AUTO 28009G28KT 10SM FEW060 FEW075 28/14 A2982 RMK AO2
KBWD 240535Z AUTO 07020G25KT 10SM FEW027 SCT047 BKN060 24/17 A2975 RMK AO2
KBWD 240515Z AUTO 05003KT 10SM FEW050 BKN070 OVC095 24/17 A2987 RMK AO2
KBWD 240501Z 20007KT 10SM FEW047 SCT060 OVC070 25/17 A2986
KBWD 240455Z AUTO 00000KT 8SM FEW047 BKN060 OVC070 25/17 A2986 RMK AO2
KBWD 240435Z AUTO 25006KT 10SM FEW046 BKN070 OVC075 27/15 A2987 RMK AO2
KBWD 240415Z AUTO 26009G18KT 9SM FEW050 SCT055 OVC080 28/15 A2987 RMK AO2
KBWD 240407Z 25013G21KT 10SM OVC070 28/15 A2987
KBWD 240355Z AUTO 26017G36KT 230V290 10SM BKN055 BKN070 29/14 A2986 RMK AO2
KBWD 240305Z 14016G24KT 10SM FEW050 32/20 A2976
KBWD 240204Z 13020G27KT 10SM CLR 33/19 A2969
KBWD 240116Z 12015G24KT 10SM CLR 35/19 A2969
KBWD 240011Z 12010G20KT 10SM -RA CLR 37/18 A2969